Time;durP1;ratioP1;P1;durP2;ratioP2;P2;SDS_P1;SDS_P2;PMS_P1;PMS_P2;Temp;Humidity;BMP_temperature;BMP_pressure;BME280_temperature;BME280_humidity;BME280_pressure;Samples;Min_cycle;Max_cycle;Signal;HPM_P1;HPM_P2
2023/11/05 00:00:36;;;;;;;0.77;0.40;;;9.40;1.00;;;;;;7382048;19;20015;-72
2023/11/05 00:03:07;;;;;;;0.77;0.50;;;9.30;1.00;;;;;;7380378;19;20074;-72
2023/11/05 00:05:39;;;;;;;0.80;0.65;;;9.40;1.00;;;;;;7382538;19;20011;-71
2023/11/05 00:08:09;;;;;;;1.20;0.40;;;9.30;1.00;;;;;;7380860;19;20439;-72
2023/11/05 00:10:39;;;;;;;0.60;0.50;;;9.30;1.00;;;;;;7380648;19;20386;-72
2023/11/05 00:13:09;;;;;;;1.80;0.50;;;9.20;1.00;;;;;;7380331;19;20015;-72
2023/11/05 00:15:41;;;;;;;1.15;0.45;;;9.20;1.00;;;;;;7381283;19;20030;-72
2023/11/05 00:18:11;;;;;;;2.47;0.70;;;9.10;1.00;;;;;;7381881;19;20014;-72
2023/11/05 00:20:43;;;;;;;2.55;0.50;;;9.10;1.00;;;;;;7382764;19;20019;-73
2023/11/05 00:23:14;;;;;;;1.35;0.45;;;9.20;1.00;;;;;;7380726;19;20015;-72
2023/11/05 00:25:44;;;;;;;1.00;0.55;;;9.20;1.00;;;;;;7381016;19;20011;-73
2023/11/05 00:28:14;;;;;;;1.55;0.70;;;9.30;1.00;;;;;;7381946;19;20010;-72
2023/11/05 00:30:44;;;;;;;1.27;0.63;;;9.20;1.00;;;;;;7380357;19;20003;-71
2023/11/05 00:33:14;;;;;;;0.73;0.30;;;9.20;1.00;;;;;;7378558;19;20082;-72
2023/11/05 00:35:47;;;;;;;1.23;0.55;;;9.30;1.00;;;;;;7379778;19;20010;-72
2023/11/05 00:38:17;;;;;;;2.15;0.60;;;9.40;1.00;;;;;;7382141;19;20003;-73
2023/11/05 00:40:47;;;;;;;4.35;1.30;;;9.40;1.00;;;;;;7381165;19;20018;-72
2023/11/05 00:43:17;;;;;;;1.25;0.80;;;9.40;1.00;;;;;;7380219;19;20010;-72
2023/11/05 00:45:47;;;;;;;1.08;0.80;;;9.40;1.00;;;;;;7381296;19;20010;-72
2023/11/05 00:48:17;;;;;;;1.38;0.47;;;9.40;1.00;;;;;;7380450;19;20015;-72
2023/11/05 00:50:50;;;;;;;1.48;0.50;;;9.30;1.00;;;;;;7381465;19;20082;-73
2023/11/05 00:53:19;;;;;;;0.90;0.40;;;9.20;1.00;;;;;;7380110;19;20845;-73
2023/11/05 00:55:50;;;;;;;0.88;0.50;;;9.20;1.00;;;;;;7381571;19;20014;-72
2023/11/05 00:58:19;;;;;;;1.38;0.50;;;9.20;1.00;;;;;;7380246;19;20015;-72
2023/11/05 01:00:50;;;;;;;2.55;0.70;;;9.10;1.00;;;;;;7380254;19;20013;-72
2023/11/05 01:03:20;;;;;;;2.30;0.70;;;9.10;1.00;;;;;;7378537;19;20016;-72
2023/11/05 01:05:53;;;;;;;0.88;0.70;;;9.10;1.00;;;;;;7378895;19;20035;-72
2023/11/05 01:08:23;;;;;;;0.52;0.40;;;9.00;1.00;;;;;;7379186;19;20572;-72
2023/11/05 01:10:54;;;;;;;1.35;0.45;;;9.00;1.00;;;;;;7380852;19;20022;-72
2023/11/05 01:13:24;;;;;;;0.80;0.43;;;9.00;1.00;;;;;;7378715;19;20015;-73
2023/11/05 01:15:54;;;;;;;1.60;0.60;;;9.10;1.00;;;;;;7380074;19;20006;-72
2023/11/05 01:18:25;;;;;;;5.38;0.80;;;9.00;1.00;;;;;;7379082;19;20014;-72
2023/11/05 01:20:58;;;;;;;1.98;0.50;;;8.90;1.00;;;;;;7378657;19;20014;-72
2023/11/05 01:23:28;;;;;;;0.70;0.40;;;8.90;1.00;;;;;;7378847;19;20048;-73
2023/11/05 01:25:58;;;;;;;2.50;0.80;;;8.90;1.00;;;;;;7379826;19;20022;-72
2023/11/05 01:28:28;;;;;;;0.65;0.45;;;8.90;1.00;;;;;;7379715;19;20006;-72
2023/11/05 01:30:58;;;;;;;2.33;0.47;;;9.10;1.00;;;;;;7379998;19;20013;-72
2023/11/05 01:33:28;;;;;;;0.60;0.50;;;9.10;1.00;;;;;;7378904;19;20014;-72
2023/11/05 01:36:01;;;;;;;2.90;0.60;;;9.10;1.00;;;;;;7380693;19;20155;-72
2023/11/05 01:38:35;;;;;;;1.25;0.60;;;9.30;1.00;;;;;;7372821;19;20126;-73
2023/11/05 01:41:05;;;;;;;1.10;0.40;;;9.20;1.00;;;;;;7378973;19;20038;-73
2023/11/05 01:43:35;;;;;;;1.42;0.50;;;9.30;1.00;;;;;;7378439;19;20022;-73
2023/11/05 01:46:06;;;;;;;1.35;0.50;;;9.40;1.00;;;;;;7378509;19;20134;-73
2023/11/05 01:48:36;;;;;;;0.50;0.30;;;9.40;1.00;;;;;;7377758;19;20021;-72
2023/11/05 01:51:14;;;;;;;0.88;0.50;;;9.50;1.00;;;;;;7377880;19;20011;-72
2023/11/05 01:53:46;;;;;;;1.20;0.55;;;9.60;1.00;;;;;;7378218;19;20082;-72
2023/11/05 01:56:16;;;;;;;2.10;0.55;;;9.60;1.00;;;;;;7378604;19;20007;-72
2023/11/05 01:58:46;;;;;;;3.33;0.45;;;9.50;1.00;;;;;;7379495;19;20102;-72
2023/11/05 02:01:16;;;;;;;1.63;0.70;;;9.40;1.00;;;;;;7378776;19;20006;-72
2023/11/05 02:03:46;;;;;;;1.10;0.25;;;9.30;1.00;;;;;;7376135;19;20025;-72
2023/11/05 02:06:19;;;;;;;0.65;0.32;;;9.40;1.00;;;;;;7377440;19;20014;-73
2023/11/05 02:08:49;;;;;;;0.65;0.35;;;9.40;1.00;;;;;;7376880;19;20010;-72
2023/11/05 02:11:19;;;;;;;2.28;0.40;;;9.50;1.00;;;;;;7375787;19;20045;-72
2023/11/05 02:13:51;;;;;;;0.75;0.30;;;9.50;1.00;;;;;;7375867;19;20047;-72
2023/11/05 02:16:23;;;;;;;0.90;0.40;;;9.60;1.00;;;;;;7377804;19;20007;-72
2023/11/05 02:18:54;;;;;;;0.75;0.50;;;9.70;1.00;;;;;;7377847;19;20006;-71
2023/11/05 02:21:29;;;;;;;1.38;0.40;;;9.70;1.00;;;;;;7378239;19;20018;-71
2023/11/05 02:24:01;;;;;;;0.70;0.40;;;9.80;1.00;;;;;;7376119;19;20025;-72
2023/11/05 02:26:32;;;;;;;2.03;0.32;;;9.80;1.00;;;;;;7376321;19;20440;-71
2023/11/05 02:29:02;;;;;;;0.50;0.32;;;9.80;1.00;;;;;;7378740;19;20070;-71
2023/11/05 02:31:32;;;;;;;0.70;0.35;;;9.90;1.00;;;;;;7378800;19;20026;-71
2023/11/05 02:34:03;;;;;;;2.55;1.40;;;9.80;1.00;;;;;;7374044;19;20864;-71
2023/11/05 02:36:33;;;;;;;3.67;1.40;;;10.00;1.00;;;;;;7378401;19;20658;-71
2023/11/05 02:39:07;;;;;;;1.83;0.60;;;10.00;1.00;;;;;;7379231;19;20010;-72
2023/11/05 02:41:36;;;;;;;3.92;0.80;;;10.00;1.00;;;;;;7383122;19;20014;-71
2023/11/05 02:44:07;;;;;;;0.70;0.40;;;10.10;1.00;;;;;;7376877;19;20010;-73
2023/11/05 02:46:37;;;;;;;1.35;0.50;;;10.10;1.00;;;;;;7376567;19;20477;-73
2023/11/05 02:49:08;;;;;;;1.17;0.50;;;10.10;1.00;;;;;;7376845;19;20454;-72
2023/11/05 02:51:38;;;;;;;1.58;0.30;;;10.10;1.00;;;;;;7376747;19;20011;-71
2023/11/05 02:54:11;;;;;;;0.60;0.40;;;10.10;1.00;;;;;;7375997;19;20007;-72
2023/11/05 02:56:41;;;;;;;1.75;0.50;;;10.10;1.00;;;;;;7376981;19;20010;-72
2023/11/05 02:59:16;;;;;;;4.80;0.95;;;10.20;1.00;;;;;;7376299;19;20019;-72
2023/11/05 03:01:46;;;;;;;2.33;0.60;;;10.10;1.00;;;;;;7377759;19;20777;-71
2023/11/05 03:04:18;;;;;;;2.28;0.70;;;10.10;1.00;;;;;;7375420;19;20096;-71
2023/11/05 03:06:51;;;;;;;1.10;0.50;;;10.20;1.00;;;;;;7376709;19;20019;-72
2023/11/05 03:09:24;;;;;;;2.53;0.73;;;10.20;1.00;;;;;;7379081;19;20010;-72
2023/11/05 03:11:54;;;;;;;2.13;0.60;;;10.10;1.00;;;;;;7376591;19;20024;-71
2023/11/05 03:14:25;;;;;;;2.47;0.65;;;10.20;1.00;;;;;;7375915;19;20041;-72
2023/11/05 03:16:56;;;;;;;1.13;0.50;;;10.20;1.00;;;;;;7376345;19;20414;-71
2023/11/05 03:19:27;;;;;;;4.28;0.50;;;10.30;1.00;;;;;;7377569;19;20022;-72
2023/11/05 03:21:57;;;;;;;3.95;0.80;;;10.20;1.00;;;;;;7375566;19;20014;-72
2023/11/05 03:24:30;;;;;;;2.88;0.85;;;10.30;1.00;;;;;;7381687;19;20077;-72
2023/11/05 03:27:00;;;;;;;3.05;0.65;;;10.40;1.00;;;;;;7382344;19;20023;-71
2023/11/05 03:29:30;;;;;;;3.38;0.95;;;10.30;1.00;;;;;;7383254;19;20131;-71
2023/11/05 03:32:00;;;;;;;4.32;0.90;;;10.30;1.00;;;;;;7382109;19;20083;-71
2023/11/05 03:34:30;;;;;;;4.07;0.77;;;10.30;1.00;;;;;;7380762;19;20011;-72
2023/11/05 03:37:00;;;;;;;1.77;0.73;;;10.30;1.00;;;;;;7381815;19;20018;-72
2023/11/05 03:39:32;;;;;;;1.80;0.65;;;10.30;1.00;;;;;;7381674;19;20102;-72
2023/11/05 03:42:02;;;;;;;2.42;0.90;;;10.40;1.00;;;;;;7382608;19;20010;-71
2023/11/05 03:44:32;;;;;;;2.05;0.80;;;10.40;1.00;;;;;;7381790;19;20007;-72
2023/11/05 03:47:02;;;;;;;2.35;0.73;;;10.20;1.00;;;;;;7382278;19;20017;-71
2023/11/05 03:49:32;;;;;;;3.08;0.80;;;10.10;1.00;;;;;;7383782;19;20044;-72
2023/11/05 03:52:03;;;;;;;2.85;0.57;;;10.10;1.00;;;;;;7381495;19;20511;-71
2023/11/05 03:54:36;;;;;;;3.75;0.85;;;10.20;1.00;;;;;;7378343;19;20470;-72
2023/11/05 03:57:06;;;;;;;2.28;0.70;;;10.10;1.00;;;;;;7382212;19;20036;-72
2023/11/05 03:59:36;;;;;;;5.05;0.77;;;10.10;1.00;;;;;;7381921;19;20033;-71
2023/11/05 04:02:06;;;;;;;3.33;0.60;;;10.20;1.00;;;;;;7382599;19;20020;-72
2023/11/05 04:04:36;;;;;;;2.30;0.77;;;10.30;1.00;;;;;;7382577;19;20023;-72
2023/11/05 04:07:07;;;;;;;3.40;0.80;;;10.20;1.00;;;;;;7383078;19;20089;-72
2023/11/05 04:09:40;;;;;;;2.78;0.65;;;10.00;1.00;;;;;;7382962;19;20503;-71
2023/11/05 04:12:10;;;;;;;2.22;0.90;;;10.00;1.00;;;;;;7379642;19;20039;-73
2023/11/05 04:14:40;;;;;;;2.78;0.55;;;10.20;1.00;;;;;;7380291;19;20015;-72
2023/11/05 04:17:10;;;;;;;2.20;0.75;;;10.10;1.00;;;;;;7381005;19;20022;-72
2023/11/05 04:19:40;;;;;;;1.83;0.55;;;10.20;1.00;;;;;;7382052;19;20488;-72
2023/11/05 04:22:10;;;;;;;3.28;1.00;;;10.00;1.00;;;;;;7379488;19;20010;-71
2023/11/05 04:24:42;;;;;;;1.33;0.65;;;10.00;1.00;;;;;;7380611;19;20011;-71
2023/11/05 04:27:12;;;;;;;2.33;0.73;;;9.90;1.00;;;;;;7382848;19;20052;-72
2023/11/05 04:29:42;;;;;;;2.22;0.90;;;9.90;1.00;;;;;;7382690;19;20022;-72
2023/11/05 04:32:13;;;;;;;5.93;0.98;;;9.90;1.00;;;;;;7380876;19;20031;-72
2023/11/05 04:34:43;;;;;;;1.02;0.45;;;10.10;1.00;;;;;;7379279;19;20037;-72
2023/11/05 04:37:13;;;;;;;2.67;0.70;;;10.10;1.00;;;;;;7381816;19;20351;-72
2023/11/05 04:39:46;;;;;;;3.58;1.00;;;10.10;1.00;;;;;;7380502;19;20011;-72
2023/11/05 04:42:16;;;;;;;3.90;0.70;;;10.00;1.00;;;;;;7380150;19;20081;-72
2023/11/05 04:44:46;;;;;;;3.08;0.85;;;10.10;1.00;;;;;;7379650;19;20032;-72
2023/11/05 04:47:16;;;;;;;1.35;0.65;;;10.10;1.00;;;;;;7380522;19;20036;-72
2023/11/05 04:49:46;;;;;;;2.90;0.75;;;10.20;1.00;;;;;;7381454;19;20399;-72
2023/11/05 04:52:16;;;;;;;1.15;0.50;;;10.20;1.00;;;;;;7379879;19;20052;-72
2023/11/05 04:54:49;;;;;;;3.10;0.85;;;10.20;1.00;;;;;;7380169;19;20043;-72
2023/11/05 04:57:19;;;;;;;1.15;0.60;;;10.30;1.00;;;;;;7380074;19;20014;-72
2023/11/05 04:59:49;;;;;;;2.67;1.10;;;10.30;1.00;;;;;;7380943;19;20018;-72
2023/11/05 05:02:19;;;;;;;8.82;1.17;;;10.30;1.00;;;;;;7380146;19;20010;-72
2023/11/05 05:04:49;;;;;;;4.32;0.80;;;10.30;1.00;;;;;;7379229;19;20014;-71
2023/11/05 05:07:19;;;;;;;3.25;0.90;;;10.30;1.00;;;;;;7378932;19;20022;-72
2023/11/05 05:09:53;;;;;;;3.83;1.05;;;10.40;1.00;;;;;;7380517;19;20018;-72
2023/11/05 05:12:24;;;;;;;1.58;0.55;;;10.30;1.00;;;;;;7378740;19;20027;-72
2023/11/05 05:14:54;;;;;;;5.55;1.23;;;10.20;1.00;;;;;;7379407;19;20039;-72
2023/11/05 05:17:24;;;;;;;2.55;0.80;;;10.20;1.00;;;;;;7379791;19;20559;-71
2023/11/05 05:19:54;;;;;;;1.10;0.50;;;10.30;1.00;;;;;;7378468;19;20122;-71
2023/11/05 05:22:24;;;;;;;2.80;0.82;;;10.20;1.00;;;;;;7379023;19;20011;-71
2023/11/05 05:24:56;;;;;;;2.17;0.60;;;10.10;1.00;;;;;;7377914;19;20043;-72
2023/11/05 05:27:26;;;;;;;2.42;0.65;;;10.20;1.00;;;;;;7380101;19;20006;-71
2023/11/05 05:29:56;;;;;;;4.07;0.65;;;10.20;1.00;;;;;;7377298;19;20019;-71
2023/11/05 05:32:26;;;;;;;2.97;0.88;;;10.10;1.00;;;;;;7378621;19;20073;-71
2023/11/05 05:34:56;;;;;;;3.92;0.75;;;10.20;1.00;;;;;;7378810;19;20415;-71
2023/11/05 05:37:26;;;;;;;2.28;0.80;;;10.20;1.00;;;;;;7379451;19;20006;-72
2023/11/05 05:39:59;;;;;;;2.92;0.50;;;10.10;1.00;;;;;;7378357;19;20371;-72
2023/11/05 05:42:29;;;;;;;4.93;1.05;;;10.20;1.00;;;;;;7379033;19;20026;-73
2023/11/05 05:44:59;;;;;;;2.75;0.70;;;10.10;1.00;;;;;;7377547;19;20041;-71
2023/11/05 05:47:30;;;;;;;1.60;0.70;;;9.90;1.00;;;;;;7377004;19;20372;-71
2023/11/05 05:50:01;;;;;;;2.20;0.50;;;9.90;1.00;;;;;;7379656;19;20359;-71
2023/11/05 05:52:30;;;;;;;2.05;0.52;;;10.00;1.00;;;;;;7378290;19;20078;-72
2023/11/05 05:55:04;;;;;;;2.33;0.90;;;10.00;1.00;;;;;;7376688;19;20043;-71
2023/11/05 05:57:35;;;;;;;1.55;0.70;;;9.90;1.00;;;;;;7378062;19;20102;-72
2023/11/05 06:00:06;;;;;;;3.15;0.93;;;9.90;1.00;;;;;;7377475;19;20015;-72
2023/11/05 06:02:36;;;;;;;1.92;0.73;;;9.80;1.00;;;;;;7376530;19;20471;-72
2023/11/05 06:05:08;;;;;;;2.45;0.60;;;9.80;1.00;;;;;;7378739;19;20561;-72
2023/11/05 06:07:38;;;;;;;2.78;0.90;;;9.90;1.00;;;;;;7390769;19;20040;-71
2023/11/05 06:10:12;;;;;;;4.40;0.60;;;10.00;1.00;;;;;;7377273;19;20039;-71
2023/11/05 06:12:42;;;;;;;3.85;1.00;;;9.90;1.00;;;;;;7378043;19;20041;-71
2023/11/05 06:15:13;;;;;;;3.70;0.80;;;9.90;1.00;;;;;;7375345;19;20459;-71
2023/11/05 06:17:43;;;;;;;3.83;0.80;;;9.90;1.00;;;;;;7377848;19;20014;-71
2023/11/05 06:20:14;;;;;;;2.03;0.50;;;10.00;1.00;;;;;;7376560;19;20032;-72
2023/11/05 06:22:44;;;;;;;2.05;0.90;;;10.00;1.00;;;;;;7376702;19;20010;-72
2023/11/05 06:25:16;;;;;;;2.47;0.80;;;10.00;1.00;;;;;;7375988;19;20011;-72
2023/11/05 06:27:46;;;;;;;2.78;0.65;;;10.00;1.00;;;;;;7376993;19;20002;-71
2023/11/05 06:30:17;;;;;;;1.95;0.45;;;10.00;1.00;;;;;;7376968;19;20014;-72
2023/11/05 06:32:47;;;;;;;3.30;0.95;;;9.90;1.00;;;;;;7379660;19;20029;-72
2023/11/05 06:35:17;;;;;;;7.28;1.05;;;9.90;1.00;;;;;;7376415;19;20040;-72
2023/11/05 06:37:47;;;;;;;1.17;0.55;;;10.00;1.00;;;;;;7378646;19;20015;-72
2023/11/05 06:40:19;;;;;;;1.92;0.70;;;10.10;1.00;;;;;;7376744;19;20769;-71
2023/11/05 06:42:49;;;;;;;2.35;0.50;;;10.20;1.00;;;;;;7375590;19;20022;-72
2023/11/05 06:45:20;;;;;;;1.73;0.73;;;10.20;1.00;;;;;;7376369;19;20010;-71
2023/11/05 06:47:51;;;;;;;1.50;0.60;;;10.20;1.00;;;;;;7377193;19;20101;-72
2023/11/05 06:50:21;;;;;;;1.60;0.40;;;10.20;1.00;;;;;;7376463;19;20002;-71
2023/11/05 06:52:51;;;;;;;2.58;0.60;;;10.20;1.00;;;;;;7378479;19;20030;-72
2023/11/05 06:55:24;;;;;;;2.42;0.80;;;10.30;1.00;;;;;;7378443;19;20389;-72
2023/11/05 06:57:54;;;;;;;2.50;0.65;;;10.20;1.00;;;;;;7380077;19;20043;-71
2023/11/05 07:00:24;;;;;;;1.80;0.52;;;10.20;1.00;;;;;;7383088;19;20375;-71
2023/11/05 07:02:54;;;;;;;2.78;0.75;;;10.40;1.00;;;;;;7383693;19;20527;-71
2023/11/05 07:05:24;;;;;;;1.75;1.05;;;10.40;1.00;;;;;;7382552;19;20010;-72
2023/11/05 07:07:55;;;;;;;2.33;0.60;;;10.40;1.00;;;;;;7382074;19;20021;-72
2023/11/05 07:10:28;;;;;;;1.27;0.50;;;10.40;1.00;;;;;;7383052;19;20010;-72
2023/11/05 07:12:58;;;;;;;1.38;0.50;;;10.50;1.00;;;;;;7381347;19;20011;-72
2023/11/05 07:15:28;;;;;;;1.38;0.30;;;10.60;1.00;;;;;;7382676;19;20006;-70
2023/11/05 07:17:58;;;;;;;1.17;0.30;;;10.80;1.00;;;;;;7383833;19;20011;-70
2023/11/05 07:20:29;;;;;;;0.50;0.30;;;11.00;1.00;;;;;;7381863;19;20010;-71
2023/11/05 07:22:59;;;;;;;0.50;0.22;;;11.00;1.00;;;;;;7380311;19;20030;-72
2023/11/05 07:25:31;;;;;;;1.35;0.30;;;11.00;1.00;;;;;;7382824;19;20031;-71
2023/11/05 07:28:03;;;;;;;0.80;0.20;;;11.00;1.00;;;;;;7383501;19;21047;-71
2023/11/05 07:30:33;;;;;;;0.73;0.30;;;10.90;1.00;;;;;;7382942;19;20014;-71
2023/11/05 07:33:05;;;;;;;2.38;0.50;;;10.90;1.00;;;;;;7380989;19;20019;-71
2023/11/05 07:35:35;;;;;;;0.70;0.40;;;11.10;1.00;;;;;;7381952;19;20020;-71
2023/11/05 07:38:07;;;;;;;0.85;0.30;;;11.10;1.00;;;;;;7382456;19;20499;-71
2023/11/05 07:40:39;;;;;;;1.05;0.40;;;11.20;1.00;;;;;;7381053;19;20435;-72
2023/11/05 07:43:09;;;;;;;0.98;0.30;;;11.30;1.00;;;;;;7381396;19;20039;-72
2023/11/05 07:45:40;;;;;;;0.57;0.30;;;11.30;1.00;;;;;;7381757;19;20475;-72
2023/11/05 07:48:09;;;;;;;1.08;0.20;;;11.40;1.00;;;;;;7383782;19;20385;-72
2023/11/05 07:50:40;;;;;;;0.20;0.20;;;11.30;1.00;;;;;;7382042;19;20385;-72
2023/11/05 07:53:10;;;;;;;0.82;0.50;;;11.40;1.00;;;;;;7380310;19;20083;-72
2023/11/05 07:55:48;;;;;;;0.30;0.28;;;11.50;1.00;;;;;;7378323;19;20037;-72
2023/11/05 07:58:18;;;;;;;1.42;0.47;;;11.60;1.00;;;;;;7381931;19;20089;-73
2023/11/05 08:00:48;;;;;;;1.02;0.13;;;11.80;1.00;;;;;;7381163;19;20013;-71
2023/11/05 08:03:18;;;;;;;0.75;0.15;;;12.00;1.00;;;;;;7380899;19;20035;-73
2023/11/05 08:05:49;;;;;;;0.77;0.30;;;12.20;1.00;;;;;;7381743;19;20014;-72
2023/11/05 08:08:19;;;;;;;0.30;0.10;;;12.20;1.00;;;;;;7381410;19;20010;-72
2023/11/05 08:10:51;;;;;;;0.30;0.13;;;12.20;1.00;;;;;;7379913;19;20037;-72
2023/11/05 08:13:21;;;;;;;0.82;0.30;;;12.30;1.00;;;;;;7380500;19;20077;-73
2023/11/05 08:15:51;;;;;;;2.55;0.63;;;12.30;1.00;;;;;;7382322;19;20034;-72
2023/11/05 08:18:21;;;;;;;0.55;0.30;;;12.20;1.00;;;;;;7380092;19;20094;-72
2023/11/05 08:20:53;;;;;;;1.67;0.45;;;12.20;1.00;;;;;;7381990;19;20006;-72
2023/11/05 08:23:23;;;;;;;0.57;0.28;;;12.20;1.00;;;;;;7377328;19;20030;-71
2023/11/05 08:25:56;;;;;;;0.55;0.20;;;12.20;1.00;;;;;;7379944;19;20007;-71
2023/11/05 08:28:26;;;;;;;1.45;0.45;;;12.20;1.00;;;;;;7379761;19;20038;-72
2023/11/05 08:30:56;;;;;;;3.30;0.20;;;12.30;1.00;;;;;;7379224;19;20121;-71
2023/11/05 08:33:26;;;;;;;0.80;0.30;;;12.30;1.00;;;;;;7380673;19;20006;-72
2023/11/05 08:35:56;;;;;;;2.35;0.32;;;12.30;1.00;;;;;;7379184;19;20014;-72
2023/11/05 08:38:26;;;;;;;2.42;0.32;;;12.40;1.00;;;;;;7379499;19;20104;-71
2023/11/05 08:40:59;;;;;;;1.35;0.20;;;12.60;1.00;;;;;;7379376;19;20090;-71
2023/11/05 08:43:29;;;;;;;0.80;0.25;;;12.60;1.00;;;;;;7379192;19;20044;-71
2023/11/05 08:46:00;;;;;;;0.52;0.25;;;12.80;1.00;;;;;;7379101;19;20098;-71
2023/11/05 08:48:32;;;;;;;2.03;0.40;;;12.80;1.00;;;;;;7379827;19;20070;-71
2023/11/05 08:51:02;;;;;;;1.92;0.30;;;12.70;1.00;;;;;;7378337;19;20006;-70
2023/11/05 08:53:32;;;;;;;0.47;0.30;;;12.80;1.00;;;;;;7378429;19;20078;-70
2023/11/05 08:56:05;;;;;;;0.57;0.22;;;12.80;1.00;;;;;;7380205;19;20006;-71
2023/11/05 08:58:35;;;;;;;0.35;0.13;;;12.80;1.00;;;;;;7380396;19;20445;-70
2023/11/05 09:01:05;;;;;;;1.52;0.20;;;12.70;1.00;;;;;;7378971;19;20026;-71
2023/11/05 09:03:35;;;;;;;0.50;0.20;;;12.80;1.00;;;;;;7377723;19;20030;-71
2023/11/05 09:06:06;;;;;;;1.17;0.40;;;12.90;1.00;;;;;;7378537;19;20027;-72
2023/11/05 09:08:38;;;;;;;0.40;0.30;;;13.00;1.00;;;;;;7380020;19;20014;-71
2023/11/05 09:11:11;;;;;;;0.40;0.20;;;13.20;1.00;;;;;;7378997;19;20010;-71
2023/11/05 09:13:41;;;;;;;1.70;0.30;;;13.30;1.00;;;;;;7374835;19;20059;-70
2023/11/05 09:16:12;;;;;;;1.63;0.35;;;13.60;1.00;;;;;;7379860;19;20010;-70
2023/11/05 09:18:44;;;;;;;1.38;0.40;;;13.60;1.00;;;;;;7381473;19;20035;-71
2023/11/05 09:21:14;;;;;;;0.82;0.20;;;13.50;1.00;;;;;;7379038;19;20150;-71
2023/11/05 09:23:44;;;;;;;0.75;0.20;;;13.60;1.00;;;;;;7378974;19;20027;-72
2023/11/05 09:26:18;;;;;;;0.80;0.30;;;13.50;1.00;;;;;;7380344;19;20018;-70
2023/11/05 09:28:48;;;;;;;0.80;0.20;;;13.10;1.00;;;;;;7373423;19;20010;-71
2023/11/05 09:31:18;;;;;;;0.60;0.28;;;13.00;1.00;;;;;;7378658;19;20011;-70
2023/11/05 09:33:48;;;;;;;1.67;0.30;;;12.80;1.00;;;;;;7367900;19;20034;-71
2023/11/05 09:36:18;;;;;;;0.60;0.30;;;12.60;1.00;;;;;;7378250;19;20018;-72
2023/11/05 09:38:48;;;;;;;1.05;0.50;;;12.50;1.00;;;;;;7378333;19;20010;-71
2023/11/05 09:41:22;;;;;;;0.45;0.20;;;12.30;1.00;;;;;;7380149;19;20051;-71
2023/11/05 09:43:52;;;;;;;0.40;0.30;;;12.20;1.00;;;;;;7376451;19;20010;-71
2023/11/05 09:46:26;;;;;;;0.95;0.30;;;12.20;1.00;;;;;;7380354;19;20268;-72
2023/11/05 09:48:56;;;;;;;1.30;0.20;;;12.20;1.00;;;;;;7376865;19;20007;-72
2023/11/05 09:51:26;;;;;;;0.82;0.38;;;12.30;1.00;;;;;;7379854;19;20011;-71
2023/11/05 09:53:57;;;;;;;0.85;0.20;;;12.30;1.00;;;;;;7377631;19;20479;-71
2023/11/05 09:56:30;;;;;;;1.40;0.40;;;12.30;1.00;;;;;;7379253;19;20014;-72
2023/11/05 09:59:01;;;;;;;0.95;0.32;;;12.40;1.00;;;;;;7378109;19;20018;-72
2023/11/05 10:01:35;;;;;;;0.70;0.30;;;12.50;1.00;;;;;;7378182;19;20017;-71
2023/11/05 10:04:08;;;;;;;1.30;0.45;;;12.30;1.00;;;;;;7377454;19;20353;-71
2023/11/05 10:06:38;;;;;;;0.45;0.30;;;12.20;1.00;;;;;;7378471;19;20014;-71
2023/11/05 10:09:09;;;;;;;0.75;0.20;;;12.20;1.00;;;;;;7378421;19;20023;-72
2023/11/05 10:11:45;;;;;;;1.60;0.38;;;12.20;1.00;;;;;;7378022;19;20010;-71
2023/11/05 10:14:15;;;;;;;1.67;0.40;;;12.20;1.00;;;;;;7378174;19;20014;-71
2023/11/05 10:16:45;;;;;;;1.05;0.50;;;12.20;1.00;;;;;;7378652;19;20098;-71
2023/11/05 10:19:15;;;;;;;1.42;0.30;;;12.10;1.00;;;;;;7378555;19;20098;-71
2023/11/05 10:21:46;;;;;;;3.80;0.40;;;12.10;1.00;;;;;;7380129;19;20048;-71
2023/11/05 10:24:16;;;;;;;1.05;0.30;;;11.90;1.00;;;;;;7376491;19;20137;-72
2023/11/05 10:26:51;;;;;;;0.77;0.40;;;11.90;1.00;;;;;;7378975;19;20019;-71
2023/11/05 10:29:21;;;;;;;2.95;0.40;;;12.00;1.00;;;;;;7372786;19;20102;-71
2023/11/05 10:31:52;;;;;;;1.55;0.40;;;11.90;1.00;;;;;;7375932;19;20021;-71
2023/11/05 10:34:23;;;;;;;1.88;0.40;;;11.90;1.00;;;;;;7364625;19;20014;-71
2023/11/05 10:36:53;;;;;;;0.88;0.30;;;11.80;1.00;;;;;;7362606;19;20021;-70
2023/11/05 10:39:24;;;;;;;2.58;0.38;;;11.70;1.00;;;;;;7363258;19;20014;-71
2023/11/05 10:42:00;;;;;;;0.40;0.17;;;11.70;1.00;;;;;;7361202;19;20010;-70
2023/11/05 10:44:31;;;;;;;0.93;0.40;;;11.60;1.00;;;;;;7361012;19;20018;-70
2023/11/05 10:47:03;;;;;;;1.55;0.70;;;11.60;1.00;;;;;;7362369;19;20014;-70
2023/11/05 10:49:34;;;;;;;1.42;0.40;;;11.70;1.00;;;;;;7362748;19;20106;-70
2023/11/05 10:52:06;;;;;;;1.92;0.60;;;11.80;1.00;;;;;;7361384;19;20637;-71
2023/11/05 10:54:37;;;;;;;1.35;0.38;;;11.90;1.00;;;;;;7360923;19;20790;-70
2023/11/05 10:57:45;;;;;;;0.88;0.35;;;11.90;1.00;;;;;;7360869;19;20006;-71
2023/11/05 11:00:46;;;;;;;2.00;0.43;;;11.80;1.00;;;;;;6854608;19;2005004;-71
2023/11/05 11:03:17;;;;;;;1.13;0.50;;;11.80;1.00;;;;;;6852718;19;2004807;-71
2023/11/05 11:06:02;;;;;;;1.48;0.60;;;11.90;1.00;;;;;;7362249;19;20007;-72
2023/11/05 11:08:36;;;;;;;0.90;0.50;;;11.80;1.00;;;;;;6851847;19;2004953;-72
2023/11/05 11:11:19;;;;;;;1.95;0.50;;;11.70;1.00;;;;;;7359952;19;20114;-72
2023/11/05 11:13:57;;;;;;;2.38;0.47;;;11.60;1.00;;;;;;7361733;19;20010;-71
2023/11/05 11:16:39;;;;;;;0.90;0.32;;;11.40;1.00;;;;;;7361355;19;20053;-72
2023/11/05 11:19:12;;;;;;;1.75;0.40;;;11.30;1.00;;;;;;7362351;19;20017;-72
2023/11/05 11:21:47;;;;;;;1.38;0.57;;;11.20;1.00;;;;;;7359888;19;20011;-71
2023/11/05 11:24:34;;;;;;;2.70;0.40;;;11.20;1.00;;;;;;7361918;19;20010;-72
2023/11/05 11:27:06;;;;;;;2.50;0.57;;;11.20;1.00;;;;;;6850300;19;2004174;-72
2023/11/05 11:29:41;;;;;;;1.02;0.60;;;11.20;7.00;;;;;;7362875;19;20006;-70
2023/11/05 11:32:12;;;;;;;3.38;0.60;;;11.20;9.30;;;;;;7358978;19;20015;-69
2023/11/05 11:34:46;;;;;;;2.63;0.65;;;11.20;7.60;;;;;;7359755;19;20082;-70
2023/11/05 11:37:18;;;;;;;2.88;0.93;;;11.20;16.50;;;;;;7362162;19;20011;-70
2023/11/05 11:39:50;;;;;;;4.47;0.70;;;11.20;18.80;;;;;;7361646;19;20015;-70
2023/11/05 11:42:20;;;;;;;1.40;0.40;;;11.20;21.20;;;;;;7357625;19;20031;-71
2023/11/05 11:44:53;;;;;;;2.15;0.60;;;11.10;11.30;;;;;;7362575;19;20017;-71
2023/11/05 11:47:24;;;;;;;2.70;0.52;;;11.20;20.50;;;;;;7368864;19;20123;-71
2023/11/05 11:49:54;;;;;;;0.93;0.50;;;11.40;25.40;;;;;;7368198;19;20021;-72
2023/11/05 11:52:24;;;;;;;1.00;0.60;;;11.40;24.00;;;;;;7366006;19;20006;-71
2023/11/05 11:54:54;;;;;;;0.95;0.52;;;11.50;12.80;;;;;;7367156;19;20072;-71
2023/11/05 11:57:26;;;;;;;1.17;0.65;;;11.70;16.80;;;;;;7367698;19;20011;-71
2023/11/05 11:59:59;;;;;;;1.08;0.60;;;11.80;11.20;;;;;;7368342;19;20013;-70
2023/11/05 12:02:28;;;;;;;0.65;0.50;;;11.80;5.20;;;;;;7364899;19;20507;-71
2023/11/05 12:05:00;;;;;;;0.60;0.40;;;11.80;2.40;;;;;;7365991;19;20648;-71
2023/11/05 12:07:45;;;;;;;1.08;0.40;;;11.80;1.20;;;;;;7367220;19;20014;-70
2023/11/05 12:10:15;;;;;;;0.85;0.40;;;11.80;1.00;;;;;;7366560;19;20033;-72
2023/11/05 12:12:46;;;;;;;2.03;0.60;;;11.80;1.00;;;;;;7367861;19;20014;-71
2023/11/05 12:15:20;;;;;;;1.67;0.60;;;11.80;1.00;;;;;;7367457;19;20480;-72
2023/11/05 12:17:50;;;;;;;0.93;0.45;;;11.80;1.00;;;;;;7364971;19;20505;-75
2023/11/05 12:20:21;;;;;;;2.03;0.70;;;11.80;1.00;;;;;;7366722;19;20105;-74
2023/11/05 12:22:51;;;;;;;0.50;0.32;;;11.80;1.00;;;;;;7366387;19;20010;-71
2023/11/05 12:25:23;;;;;;;0.95;0.30;;;11.90;1.00;;;;;;7366018;19;20019;-72
2023/11/05 12:27:53;;;;;;;0.65;0.43;;;11.90;1.00;;;;;;7369412;19;20104;-71
2023/11/05 12:30:28;;;;;;;0.80;0.20;;;11.80;1.00;;;;;;7364736;19;20039;-71
2023/11/05 12:32:58;;;;;;;0.40;0.20;;;11.80;1.00;;;;;;7364971;19;20006;-72
2023/11/05 12:35:28;;;;;;;1.20;0.50;;;11.80;1.00;;;;;;7364501;19;20010;-70
2023/11/05 12:37:58;;;;;;;0.70;0.30;;;11.80;1.00;;;;;;7366018;19;20517;-72
2023/11/05 12:40:28;;;;;;;0.70;0.47;;;11.80;1.00;;;;;;7366647;19;20386;-70
2023/11/05 12:42:58;;;;;;;0.60;0.30;;;11.80;1.00;;;;;;7362138;19;20089;-70
2023/11/05 12:45:30;;;;;;;1.00;0.30;;;11.80;1.00;;;;;;7365441;19;20041;-71
2023/11/05 12:48:00;;;;;;;0.90;0.30;;;12.00;1.00;;;;;;7366337;19;20006;-70
2023/11/05 12:50:30;;;;;;;1.83;0.38;;;12.00;1.00;;;;;;7366944;19;20010;-71
2023/11/05 12:53:01;;;;;;;0.75;0.30;;;12.10;1.00;;;;;;7364205;19;20048;-71
2023/11/05 12:55:31;;;;;;;1.80;0.80;;;12.20;1.00;;;;;;7363691;19;20423;-71
2023/11/05 12:58:02;;;;;;;1.75;0.75;;;12.20;1.00;;;;;;7366553;19;20006;-72
2023/11/05 13:00:34;;;;;;;0.40;0.30;;;12.20;1.00;;;;;;7365998;19;20524;-72
2023/11/05 13:03:04;;;;;;;1.23;0.30;;;12.20;1.00;;;;;;7364494;19;20014;-71
2023/11/05 13:05:36;;;;;;;0.82;0.40;;;12.30;1.00;;;;;;7363177;19;20019;-71
2023/11/05 13:08:09;;;;;;;0.40;0.30;;;12.30;1.00;;;;;;7366185;19;20460;-71
2023/11/05 13:10:41;;;;;;;0.65;0.40;;;12.40;1.00;;;;;;7366576;19;20024;-71
2023/11/05 13:13:11;;;;;;;0.57;0.35;;;12.40;1.00;;;;;;7360296;19;20175;-72
2023/11/05 13:15:44;;;;;;;0.30;0.20;;;12.50;1.00;;;;;;7365082;19;20573;-71
2023/11/05 13:18:14;;;;;;;2.58;0.35;;;12.50;1.00;;;;;;7366323;19;20038;-71